WEATHER DATA

YESTERDAY
Time Temp. Dewp. Hum. Wind dir Wind speed Wind gust Bar. 1h Prec. 24h Prec.
00:19 12.2 8.1 76 294 3.3 6.1 1020.7 0.0000 0.0000
00:29 12.2 8.1 76 298 3.6 5.6 1020.7 0.0000 0.0000
00:39 12.2 8.1 76 297 3.6 5.8 1020.8 0.0000 0.0000
00:49 12.3 8 75 292 3.3 6.1 1020.8 0.0000 0.0000
00:59 12.3 7.8 74 299 3.9 5.8 1020.6 0.0000 0.0000
01:09 12.3 8 75 295 3.3 5.8 1020.6 0.0000 0.0000
01:19 12.2 8.1 76 296 3.6 5.8 1020.8 0.0000 0.0000
01:29 12 8.1 77 296 3.6 5.8 1020.5 0.0000 0.0000
01:40 12 8.1 77 301 3.9 6.1 1020.6 0.0000 0.0000
01:49 11.9 8.2 78 292 3.1 5.8 1020.5 0.0000 0.0000
01:59 12 8.3 78 298 3.9 6.1 1020.4 0.0000 0.0000
02:10 12 8.3 78 299 4.2 6.1 1020.2 0.0000 0.0000
02:20 12 8.3 78 298 3.6 6.1 1020.1 0.0000 0.0000
02:30 12 8.3 78 301 3.9 6.1 1020 0.0000 0.0000
02:40 11.9 8.4 79 292 3.3 6.4 1019.9 0.0000 0.0000
02:50 11.9 8.4 79 299 3.9 6.1 1019.9 0.0000 0.0000
03:00 11.9 8.4 79 298 3.3 5.8 1020 0.0000 0.0000
03:10 11.9 8.4 79 303 3.9 6.1 1019.8 0.0000 0.0000
03:21 11.9 8.4 79 300 3.6 5.8 1019.6 0.0000 0.0000
03:30 11.8 8.3 79 298 3.3 5.8 1019.7 0.0000 0.0000
03:40 11.7 8.4 80 298 3.6 6.1 1019.7 0.0000 0.0000
03:50 11.7 8.4 80 301 4.2 5.8 1019.6 0.0000 0.0000
04:01 11.6 8.3 80 299 3.9 6.1 1019.7 0.0000 0.0000
04:11 11.5 8.2 80 297 3.9 5.8 1019.7 0.0000 0.0000
04:20 11.4 8.3 81 296 3.6 6.7 1019.6 0.0000 0.0000
04:31 11.4 8.3 81 292 3.6 6.1 1019.6 0.0000 0.0000
04:41 11.3 8.2 81 296 3.6 6.4 1019.7 0.0000 0.0000
04:51 11.3 8.3 82 292 3.3 6.1 1019.7 0.0000 0.0000
05:01 11.3 8.3 82 298 3.9 6.1 1019.5 0.0000 0.0000
05:11 11.3 8.3 82 293 3.6 6.1 1019.4 0.0000 0.0000
05:21 11.3 8.3 82 293 3.6 5.8 1019.2 0.0000 0.0000
05:31 11.4 8.3 81 297 3.9 6.4 1019.2 0.0000 0.0000
05:42 11.4 8.3 81 298 3.9 5.8 1018.9 0.0000 0.0000
05:51 11.4 8.3 81 298 3.9 6.1 1018.8 0.0000 0.0000
06:01 11.3 8.2 81 288 3.3 6.1 1018.8 0.0000 0.0000
06:11 11.2 8.2 82 296 3.6 5.8 1018.8 0.0000 0.0000
06:22 11.1 8.1 82 298 4.2 6.7 1019 0.0000 0.0000
06:32 11 8 82 289 3.3 6.1 1019 0.0000 0.0000
06:41 10.9 8.1 83 294 3.9 6.4 1019 0.0000 0.0000
06:52 10.9 8.1 83 287 3.3 6.1 1019.1 0.0000 0.0000
07:02 10.9 8.1 83 285 3.3 5.8 1019.2 0.0000 0.0000
07:10 10.9 8.1 83 294 3.6 6.4 1019.2 0.0000 0.0000
07:20 11 8 82 292 3.6 6.1 1019.4 0.0000 0.0000
07:29 11.2 8.2 82 298 3.6 6.1 1019.3 0.0000 0.0000
07:39 11.3 8.2 81 306 4.4 6.4 1019.3 0.0000 0.0000
07:50 11.4 8.3 81 309 4.7 6.1 1019.3 0.0000 0.0000
08:00 11.5 8.4 81 308 5 6.4 1019.3 0.0000 0.0000
08:10 11.7 8.4 80 306 4.7 6.9 1019.3 0.0000 0.0000
08:20 11.9 8.6 80 311 5 6.4 1019.3 0.0000 0.0000
08:30 12 8.5 79 308 4.7 6.4 1019 0.0000 0.0000
08:40 12.1 8.6 79 312 4.7 6.4 1019.2 0.0000 0.0000
08:50 12.2 8.7 79 305 4.4 6.7 1019 0.0000 0.0000
09:01 12.3 8.8 79 304 4.7 6.7 1019.1 0.0000 0.0000
09:10 12.3 8.6 78 301 4.4 6.4 1019.1 0.0000 0.0000
09:20 12.4 8.5 77 300 4.2 6.4 1018.9 0.0000 0.0000
09:31 12.4 8.5 77 307 4.7 6.7 1019.1 0.0000 0.0000
09:41 12.5 8.6 77 312 4.7 6.4 1019.1 0.0000 0.0000
09:51 12.6 8.7 77 319 5 6.1 1019 0.0000 0.0000
10:00 12.9 9.5 80 316 4.7 6.4 1019.1 0.0000 0.0000
10:11 13.1 9.7 80 322 4.4 6.1 1018.7 0.0000 0.0000
10:21 13.3 9.9 80 321 4.4 6.1 1018.7 0.0000 0.0000
10:31 13.4 10 80 320 4.4 6.7 1018.7 0.0000 0.0000
10:40 13.4 10 80 319 4.7 6.7 1018.7 0.0000 0.0000
10:49 13.4 10 80 323 4.7 6.4 1019 0.0000 0.0000
10:59 13.4 10.2 81 316 4.4 6.4 1019 0.0000 0.0000
11:10 13.4 10.4 82 322 4.7 6.4 1019.1 0.0000 0.0000
11:20 13.4 10.6 83 321 5 6.4 1019.2 0.0000 0.0000
11:30 13.4 10.8 84 322 5 6.7 1019.2 0.0000 0.0000
11:40 13.5 10.9 84 326 5.3 7.2 1019 0.0000 0.0000
11:50 13.5 10.9 84 323 5.3 6.7 1019 0.0000 0.0000
12:00 13.5 11 85 321 5.3 7.2 1019 0.0000 0.0000
12:10 13.5 11 85 323 5.3 6.9 1019.1 0.0000 0.0000
12:21 13.5 11 85 322 5 6.9 1018.9 0.0000 0.0000
12:30 13.7 11.2 85 313 5.6 7.5 1018.8 0.0000 0.0000
12:40 13.9 11.6 86 310 6.1 7.8 1018.7 0.0000 0.0000
12:50 14.1 11.6 85 301 5 8.1 1018.7 0.0000 0.0000
13:01 14.3 11.5 83 298 5.3 8.3 1018.5 0.0000 0.0000
13:11 14.6 11.7 83 304 5.8 7.8 1018.3 0.0000 0.0000
13:20 14.7 11.7 82 304 5.3 8.1 1018.1 0.0000 0.0000
13:31 14.9 11.7 81 302 5.3 7.8 1018.1 0.0000 0.0000
13:41 14.9 11.5 80 306 5 6.9 1018 0.0000 0.0000
13:51 14.9 11.3 79 304 4.7 8.3 1018.1 0.0000 0.0000
14:01 15.1 11.9 81 308 5 6.9 1017.9 0.0000 0.0000
14:11 15.6 12.2 80 309 4.7 6.9 1018 0.0000 0.0000
14:21 16.2 12.4 78 291 3.3 7.2 1018.1 0.0000 0.0000
14:31 16.4 12.2 76 261 2.8 6.9 1017.8 0.0000 0.0000
14:42 16.3 12.1 76 246 2.2 5.8 1017.8 0.0000 0.0000
14:52 16.1 11.9 76 237 2.2 4.4 1017.7 0.0000 0.0000
15:01 16.1 11.7 75 238 1.9 2.8 1017.5 0.0000 0.0000
15:11 16 11.6 75 246 1.9 4.4 1017.4 0.0000 0.0000
15:22 16.1 11.9 76 239 1.9 4.2 1017.3 0.0000 0.0000
15:32 16.3 12.1 76 248 2.2 5.8 1017.3 0.0000 0.0000
15:41 16.4 12.4 77 246 2.2 5.8 1017.3 0.0000 0.0000
15:52 16.6 12.6 77 242 2.2 5 1017.1 0.0000 0.0000
16:02 16.7 12.7 77 255 2.5 6.1 1017 0.0000 0.0000
16:12 16.6 12.6 77 299 3.6 6.4 1017 0.0000 0.0000
16:22 16.4 12.6 78 298 3.3 6.4 1017 0.0000 0.0000
16:32 16 12.2 78 302 3.3 5.8 1016.9 0.0000 0.0000
16:42 15.6 11.8 78 313 3.6 5.8 1016.6 0.0000 0.0000
16:52 15.3 11.5 78 296 3.1 5.8 1016.5 0.0000 0.0000
17:03 15 11.2 78 305 3.3 5.8 1016.5 0.0000 0.0000
17:13 14.8 11.2 79 292 3.1 5.8 1016.3 0.0000 0.0000
17:22 14.8 11.4 80 276 3.1 6.7 1016.1 0.0000 0.0000
17:32 14.9 11.7 81 289 3.3 6.1 1016.1 0.0000 0.0000
17:43 14.9 11.9 82 291 3.3 6.4 1016.2 0.0000 0.0000
17:53 14.9 12 83 295 3.9 6.9 1016.1 0.0000 0.0000
18:03 14.8 11.9 83 296 3.6 6.7 1015.8 0.0000 0.0000
18:13 14.8 12.1 84 305 4.4 6.7 1015.7 0.0000 0.0000
18:23 15 12.3 84 308 5.3 6.9 1015.6 0.0000 0.0000
18:33 14.9 12.2 84 303 5.3 7.8 1015.6 0.0000 0.0000
18:43 14.9 12.2 84 308 5.6 7.2 1015.5 0.0000 0.0000
18:54 14.8 12.1 84 307 5.3 7.8 1015.4 0.0000 0.0000
19:03 14.7 12 84 321 5.6 6.9 1015.5 0.0000 0.0000
19:13 14.5 12 85 320 5.6 6.9 1015.5 0.0000 0.0000
19:24 14.4 11.9 85 321 5.6 7.2 1015.6 0.0000 0.0000
19:34 14.3 12 86 320 5.8 7.8 1015.3 0.0000 0.0000
19:44 14.3 12 86 319 5.8 7.2 1015.5 0.0000 0.0000
19:53 14.2 12.1 87 320 5.8 7.5 1015.6 0.0000 0.0000
20:04 14.1 12 87 318 5.6 6.9 1015.9 0.0000 0.0000
20:14 14.1 12 87 315 5.3 6.9 1016.1 0.0000 0.0000
20:24 14.1 12 87 312 5.6 6.9 1016.3 0.0000 0.0000
20:34 14 11.9 87 310 5.6 7.2 1016.6 0.0000 0.0000
20:44 14 11.9 87 311 5.6 6.9 1016.5 0.0000 0.0000
20:54 14 11.9 87 310 5.3 6.7 1016 0.1400 0.1000
21:04 14 11.9 87 308 5.3 6.9 1016.1 0.1400 0.1000
21:15 13.9 11.8 87 310 5.3 6.7 1016 0.1400 0.1000
21:25 13.9 11.8 87 309 5.3 6.7 1015.8 0.1400 0.1000
21:34 14 11.9 87 304 5 6.7 1015.7 0.1400 0.1000
21:45 14.3 11.3 82 302 4.2 6.4 1015.2 0.0000 0.1000
21:54 14.7 10.1 74 267 2.8 6.1 1015.1 0.0000 0.1000
22:04 15.5 9.2 66 229 2.2 4.7 1014.8 0.0000 0.1000
22:14 16.1 8.8 62 233 2.2 3.9 1014.6 0.0000 0.1000
22:24 16.4 8.6 60 234 2.2 4.7 1014.9 0.0000 0.1000
22:34 16.5 8.5 59 237 2.8 5 1014.8 0.0000 0.1000
22:44 16.6 8.3 58 232 2.8 5.6 1014.9 0.0000 0.1000
22:55 16.5 8.7 60 237 2.2 4.4 1014.7 0.0000 0.1000
23:04 16.6 7.8 56 228 2.8 5 1014.3 0.0000 0.1000
23:14 17 7.4 53 227 3.1 6.4 1014.3 0.0000 0.1000
23:24 17.2 7.3 52 237 2.8 5 1014.4 0.0000 0.1000
23:35 17.1 7.5 53 235 2.2 3.3 1014.6 0.0000 0.1000
23:44 17.1 7.7 54 229 2.5 3.9 1014.8 0.0000 0.1000
23:54 16.9 8.3 57 230 2.5 5 1014.7 0.0000

DAY STATISTIC

2021-04-12
TEMPERATURE
AVERAGE
13.6
HIGH
17.2
23:24
LOW
10.9
06:41
PRESSURE
AVERAGE
1018.0
HIGH
1020.8
00:39
LOW
1014.3
23:04
DEWPOINT
AVERAGE
9.9
HIGH
12.7
16:02
LOW
7.3
23:24
HUMIDITY
AVERAGE
79
HIGH
87
19:53
LOW
52
23:24
WIND SPEED
AVERAGE
4.0
HIGH
6.1
12:40
WIND GUST
AVERAGE
6.3
HIGH
8.3
13:01
WIND DIRECTION
PREVAILING
NW
73.2%
N
0.0
NE
0.0
E
0.0
SE
0.0
S
0.0
SW
13.4
W
13.4
NW
73.2
PRECIPITATION
RAIN HOUR
0.1
RAIN DAY
0.1
TEMPERATURE (°C)
LOW
10.9
HIGH
17.2
AVERAGE
13.6
PRESSURE (hpa)
LOW
1014.3
HIGH
1020.8
AVERAGE
1018.0
DEVICE